createdAt,value
2022-11-05T00:01:04.435Z,0.80
2022-11-05T00:03:33.947Z,0.98
2022-11-05T00:06:01.139Z,1.65
2022-11-05T00:08:28.685Z,0.80
2022-11-05T00:10:55.902Z,0.90
2022-11-05T00:13:23.603Z,2.50
2022-11-05T00:15:51.042Z,0.85
2022-11-05T00:18:18.340Z,1.17
2022-11-05T00:20:46.186Z,0.80
2022-11-05T00:23:15.706Z,1.35
2022-11-05T00:25:43.238Z,2.55
2022-11-05T00:28:10.466Z,1.05
2022-11-05T00:30:38.027Z,1.60
2022-11-05T00:33:05.179Z,0.80
2022-11-05T00:35:32.678Z,0.93
2022-11-05T00:37:59.936Z,1.00
2022-11-05T00:40:27.500Z,0.80
2022-11-05T00:42:54.696Z,1.35
2022-11-05T00:45:22.258Z,1.13
2022-11-05T00:47:50.123Z,1.10
2022-11-05T00:50:18.819Z,2.72
2022-11-05T00:52:53.520Z,1.25
2022-11-05T00:55:29.126Z,0.90
2022-11-05T00:57:57.538Z,1.45
2022-11-05T01:00:29.654Z,1.33
2022-11-05T01:03:01.124Z,1.40
2022-11-05T01:05:30.035Z,0.82
2022-11-05T01:07:57.266Z,1.67
2022-11-05T01:10:25.640Z,0.77
2022-11-05T01:12:52.872Z,1.17
2022-11-05T01:15:23.220Z,1.55
2022-11-05T01:17:51.756Z,3.92
2022-11-05T01:20:19.818Z,0.90
2022-11-05T01:22:46.951Z,0.80
2022-11-05T01:25:14.655Z,0.80
2022-11-05T01:27:41.898Z,1.08
2022-11-05T01:30:10.070Z,1.00
2022-11-05T01:32:38.151Z,1.15
2022-11-05T01:35:08.513Z,1.85
2022-11-05T01:37:35.780Z,1.77
2022-11-05T01:40:03.563Z,0.88
2022-11-05T01:42:33.439Z,0.63
2022-11-05T01:45:14.588Z,1.48
2022-11-05T01:48:02.359Z,0.80
2022-11-05T01:50:32.019Z,1.13
2022-11-05T01:53:08.495Z,2.25
2022-11-05T01:55:41.696Z,1.40
2022-11-05T01:58:13.240Z,1.10
2022-11-05T02:00:43.863Z,0.93
2022-11-05T02:03:18.422Z,0.70
2022-11-05T02:05:48.757Z,0.80
2022-11-05T02:08:29.180Z,1.90
2022-11-05T02:10:58.628Z,0.73
2022-11-05T02:13:25.958Z,0.63
2022-11-05T02:16:14.686Z,0.57
2022-11-05T02:19:04.670Z,0.68
2022-11-05T02:21:52.041Z,1.30
2022-11-05T02:24:50.954Z,0.82
2022-11-05T02:27:33.755Z,0.52
2022-11-05T02:30:28.511Z,0.80
2022-11-05T02:33:18.542Z,1.00
2022-11-05T02:35:51.616Z,1.48
2022-11-05T02:38:40.627Z,1.63
2022-11-05T02:41:39.959Z,0.60
2022-11-05T02:44:37.045Z,1.70
2022-11-05T02:47:50.651Z,0.55
2022-11-05T02:50:33.830Z,0.90
2022-11-05T02:53:12.987Z,0.93
2022-11-05T02:56:03.852Z,1.17
2022-11-05T03:04:11.889Z,1.90
2022-11-05T03:06:51.241Z,0.82
2022-11-05T03:09:40.058Z,0.63
2022-11-05T03:12:29.077Z,1.05
2022-11-05T03:15:05.516Z,2.75
2022-11-05T03:17:50.746Z,0.70
2022-11-05T03:20:23.441Z,1.50
2022-11-05T03:23:25.481Z,2.92
2022-11-05T03:26:01.969Z,0.98
2022-11-05T03:28:33.694Z,1.40
2022-11-05T03:31:03.627Z,1.75
2022-11-05T03:33:39.252Z,1.63
2022-11-05T03:36:11.955Z,1.40
2022-11-05T03:38:43.217Z,1.35
2022-11-05T03:41:13.578Z,1.98
2022-11-05T03:43:45.632Z,1.42
2022-11-05T03:46:21.039Z,1.17
2022-11-05T03:48:52.270Z,2.08
2022-11-05T03:51:38.461Z,2.70
2022-11-05T03:54:06.386Z,2.28
2022-11-05T03:57:05.888Z,1.30
2022-11-05T03:59:46.615Z,2.75
2022-11-05T04:02:18.676Z,1.42
2022-11-05T04:04:47.217Z,2.45
2022-11-05T04:07:14.457Z,1.27
2022-11-05T04:09:41.549Z,1.20
2022-11-05T04:12:10.923Z,1.65
2022-11-05T04:14:40.609Z,1.73
2022-11-05T04:17:08.331Z,1.40
2022-11-05T04:19:45.585Z,1.85
2022-11-05T04:22:13.211Z,1.40
2022-11-05T04:24:40.505Z,1.67
2022-11-05T04:27:08.244Z,1.38
2022-11-05T04:29:35.527Z,1.83
2022-11-05T04:32:03.203Z,1.33
2022-11-05T04:34:30.287Z,1.75
2022-11-05T04:36:57.855Z,2.78
2022-11-05T04:39:24.957Z,1.67
2022-11-05T04:41:52.817Z,2.90
2022-11-05T04:44:20.217Z,1.77
2022-11-05T04:46:52.270Z,1.70
2022-11-05T04:49:19.381Z,1.88
2022-11-05T04:51:46.951Z,1.35
2022-11-05T04:54:14.002Z,1.88
2022-11-05T04:56:41.610Z,1.23
2022-11-05T04:59:08.855Z,1.20
2022-11-05T05:01:36.605Z,1.88
2022-11-05T05:04:04.002Z,1.52
2022-11-05T05:06:31.733Z,4.45
2022-11-05T05:08:58.877Z,2.22
2022-11-05T05:11:26.620Z,2.80
2022-11-05T05:13:53.839Z,2.40
2022-11-05T05:16:26.229Z,1.83
2022-11-05T05:18:54.285Z,2.05
2022-11-05T05:21:24.989Z,2.08
2022-11-05T05:23:52.035Z,2.95
2022-11-05T05:26:19.548Z,2.45
2022-11-05T05:28:46.840Z,2.00
2022-11-05T05:31:14.190Z,2.15
2022-11-05T05:33:41.436Z,2.30
2022-11-05T05:36:11.537Z,3.45
2022-11-05T05:38:38.857Z,2.58
2022-11-05T05:41:06.326Z,1.50
2022-11-05T05:43:36.092Z,1.55
2022-11-05T05:46:05.634Z,2.22
2022-11-05T05:48:32.746Z,1.20
2022-11-05T05:51:05.844Z,1.35
2022-11-05T05:53:33.384Z,1.13
2022-11-05T05:56:13.329Z,3.85
2022-11-05T05:58:42.219Z,2.55
2022-11-05T06:01:18.601Z,2.22
2022-11-05T06:03:47.382Z,2.35
2022-11-05T06:06:16.371Z,1.35
2022-11-05T06:08:43.655Z,1.58
2022-11-05T06:11:11.562Z,2.72
2022-11-05T06:13:38.946Z,2.65
2022-11-05T06:16:08.939Z,3.22
2022-11-05T06:18:36.918Z,1.98
2022-11-05T06:21:10.106Z,2.97
2022-11-05T06:23:39.372Z,3.28
2022-11-05T06:26:15.297Z,1.83
2022-11-05T06:28:42.980Z,4.88
2022-11-05T06:31:12.242Z,1.92
2022-11-05T06:33:39.817Z,3.95
2022-11-05T06:36:08.412Z,2.30
2022-11-05T06:38:36.860Z,2.67
2022-11-05T06:41:10.076Z,5.85
2022-11-05T06:43:40.784Z,1.85
2022-11-05T06:46:09.610Z,2.88
2022-11-05T06:48:37.319Z,1.30
2022-11-05T06:51:05.222Z,2.78
2022-11-05T06:53:32.567Z,1.27
2022-11-05T06:56:07.952Z,3.50
2022-11-05T06:58:35.980Z,3.15
2022-11-05T07:01:06.081Z,1.58
2022-11-05T07:03:33.239Z,5.50
2022-11-05T07:06:01.649Z,3.67
2022-11-05T07:08:33.593Z,4.00
2022-11-05T07:11:01.179Z,4.45
2022-11-05T07:13:28.463Z,4.45
2022-11-05T07:15:56.036Z,6.10
2022-11-05T07:18:23.437Z,2.78
2022-11-05T07:20:51.042Z,4.20
2022-11-05T07:23:18.075Z,4.40
2022-11-05T07:25:47.968Z,4.80
2022-11-05T07:28:15.244Z,4.20
2022-11-05T07:30:42.652Z,5.28
2022-11-05T07:33:10.405Z,5.35
2022-11-05T07:35:38.091Z,12.63
2022-11-05T07:38:05.135Z,4.32
2022-11-05T07:40:32.588Z,5.15
2022-11-05T07:43:01.577Z,2.90
2022-11-05T07:45:30.792Z,3.55
2022-11-05T07:48:02.540Z,3.67
2022-11-05T07:50:33.644Z,4.40
2022-11-05T07:53:02.392Z,3.22
2022-11-05T07:55:30.201Z,4.53
2022-11-05T07:57:57.583Z,4.78
2022-11-05T08:00:26.826Z,2.80
2022-11-05T08:03:08.506Z,4.70
2022-11-05T08:05:39.759Z,26.75
2022-11-05T08:08:08.385Z,16.60
2022-11-05T08:10:36.582Z,8.65
2022-11-05T08:13:05.110Z,5.53
2022-11-05T08:15:33.213Z,4.55
2022-11-05T08:18:07.649Z,3.03
2022-11-05T08:20:35.663Z,3.85
2022-11-05T08:23:03.238Z,5.63
2022-11-05T08:25:31.045Z,3.17
2022-11-05T08:28:00.886Z,3.40
2022-11-05T08:30:29.498Z,4.65
2022-11-05T08:32:58.616Z,3.90
2022-11-05T08:35:27.114Z,6.05
2022-11-05T08:38:05.655Z,4.88
2022-11-05T08:40:35.317Z,3.25
2022-11-05T08:43:04.650Z,5.25
2022-11-05T08:45:32.366Z,4.93
2022-11-05T08:48:03.935Z,5.38
2022-11-05T08:50:34.406Z,4.15
2022-11-05T08:53:01.730Z,6.22
2022-11-05T08:55:29.376Z,4.32
2022-11-05T08:57:56.874Z,4.18
2022-11-05T09:00:25.616Z,6.10
2022-11-05T09:02:52.774Z,3.70
2022-11-05T09:05:20.387Z,7.72
2022-11-05T09:07:47.589Z,11.55
2022-11-05T09:10:15.732Z,14.35
2022-11-05T09:12:43.190Z,11.02
2022-11-05T09:15:11.205Z,8.02
2022-11-05T09:17:38.293Z,8.20
2022-11-05T09:20:06.454Z,7.68
2022-11-05T09:22:36.877Z,18.77
2022-11-05T09:25:07.471Z,8.10
2022-11-05T09:27:34.918Z,10.60
2022-11-05T09:30:02.277Z,6.00
2022-11-05T09:32:33.378Z,8.77
2022-11-05T09:35:00.825Z,6.97
2022-11-05T09:37:29.124Z,6.50
2022-11-05T09:39:56.891Z,8.90
2022-11-05T09:42:35.759Z,10.40
2022-11-05T09:45:12.710Z,4.95
2022-11-05T09:47:44.309Z,5.45
2022-11-05T09:50:44.375Z,7.20
2022-11-05T09:53:23.373Z,4.43
2022-11-05T09:55:59.674Z,26.45
2022-11-05T09:58:39.634Z,9.25
2022-11-05T10:01:14.507Z,18.77
2022-11-05T10:03:55.217Z,13.13
2022-11-05T10:06:26.023Z,7.05
2022-11-05T10:09:03.150Z,5.55
2022-11-05T10:11:51.923Z,7.05
2022-11-05T10:14:24.529Z,5.45
2022-11-05T10:17:00.993Z,6.88
2022-11-05T10:19:54.447Z,8.45
2022-11-05T10:22:22.197Z,8.50
2022-11-05T10:24:50.873Z,6.93
2022-11-05T10:27:31.858Z,9.70
2022-11-05T10:30:00.167Z,8.10
2022-11-05T10:32:33.675Z,6.18
2022-11-05T10:35:05.080Z,7.57
2022-11-05T10:37:38.198Z,7.30
2022-11-05T10:40:24.734Z,6.60
2022-11-05T10:43:00.929Z,9.05
2022-11-05T10:45:34.063Z,5.03
2022-11-05T10:48:04.749Z,5.85
2022-11-05T10:50:32.659Z,4.85
2022-11-05T10:53:15.113Z,9.45
2022-11-05T10:55:46.250Z,10.30
2022-11-05T10:58:14.082Z,5.65
2022-11-05T11:00:46.193Z,7.20
2022-11-05T11:03:36.178Z,9.57
2022-11-05T11:06:26.326Z,6.28
2022-11-05T11:08:56.870Z,6.93
2022-11-05T11:11:33.092Z,5.60
2022-11-05T11:14:11.637Z,7.32
2022-11-05T11:16:41.585Z,10.95
2022-11-05T11:19:21.591Z,13.05
2022-11-05T11:22:13.081Z,12.10
2022-11-05T11:24:45.521Z,6.05
2022-11-05T11:27:31.219Z,11.85
2022-11-05T11:30:01.573Z,8.07
2022-11-05T11:32:34.949Z,8.68
2022-11-05T11:35:03.997Z,7.10
2022-11-05T11:37:39.412Z,7.00
2022-11-05T11:40:38.220Z,8.65
2022-11-05T11:43:27.413Z,8.88
2022-11-05T11:46:03.769Z,10.63
2022-11-05T11:48:36.185Z,13.38
2022-11-05T11:51:18.041Z,8.48
2022-11-05T11:53:48.602Z,11.75
2022-11-05T11:56:21.499Z,8.75
2022-11-05T11:58:54.181Z,9.18
2022-11-05T12:01:36.913Z,8.80
2022-11-05T12:04:16.505Z,8.95
2022-11-05T12:07:33.722Z,10.02
2022-11-05T12:10:18.418Z,9.98
2022-11-05T12:12:49.004Z,10.10
2022-11-05T12:15:46.913Z,14.88
2022-11-05T12:18:40.073Z,13.82
2022-11-05T12:21:41.058Z,9.90
2022-11-05T12:24:48.267Z,10.90
2022-11-05T12:27:15.477Z,10.65
2022-11-05T12:30:02.566Z,11.05
2022-11-05T12:33:16.157Z,9.18
2022-11-05T12:36:13.649Z,14.27
2022-11-05T12:39:03.308Z,9.18
2022-11-05T12:42:09.933Z,10.50
2022-11-05T12:45:15.736Z,15.23
2022-11-05T12:48:09.513Z,9.68
2022-11-05T12:50:54.707Z,12.20
2022-11-05T12:53:44.061Z,8.77
2022-11-05T12:56:20.076Z,11.82
2022-11-05T12:59:04.779Z,9.35
2022-11-05T13:01:43.018Z,11.48
2022-11-05T13:04:52.309Z,10.15
2022-11-05T13:07:36.306Z,13.43
2022-11-05T13:10:42.951Z,12.63
2022-11-05T13:13:18.714Z,17.75
2022-11-05T13:16:10.369Z,11.02
2022-11-05T13:18:52.685Z,13.98
2022-11-05T13:21:22.963Z,12.63
2022-11-05T13:24:11.351Z,10.18
2022-11-05T13:26:43.469Z,10.38
2022-11-05T13:29:43.627Z,12.50
2022-11-05T13:32:27.269Z,11.35
2022-11-05T13:34:59.486Z,16.65
2022-11-05T13:37:32.592Z,16.67
2022-11-05T13:40:07.717Z,10.95
2022-11-05T13:42:49.370Z,17.02
2022-11-05T13:45:47.633Z,12.13
2022-11-05T13:48:45.976Z,15.25
2022-11-05T13:51:31.461Z,17.67
2022-11-05T13:54:10.340Z,16.27
2022-11-05T13:56:59.126Z,9.18
2022-11-05T13:59:35.799Z,13.20
2022-11-05T14:02:35.457Z,10.85
2022-11-05T14:05:04.703Z,13.00
2022-11-05T14:07:38.007Z,14.00
2022-11-05T14:10:34.793Z,12.10
2022-11-05T14:13:22.642Z,15.88
2022-11-05T14:15:58.502Z,19.73
2022-11-05T14:18:36.355Z,14.23
2022-11-05T14:21:05.449Z,17.08
2022-11-05T14:23:39.127Z,18.40
2022-11-05T14:26:29.765Z,15.52
2022-11-05T14:29:03.334Z,15.35
2022-11-05T14:34:40.947Z,13.95
2022-11-05T14:37:11.218Z,15.13
2022-11-05T14:39:39.739Z,14.90
2022-11-05T14:42:22.397Z,16.73
2022-11-05T14:45:01.664Z,14.77
2022-11-05T14:47:38.851Z,14.50
2022-11-05T14:50:22.526Z,13.07
2022-11-05T14:52:55.844Z,12.80
2022-11-05T14:55:39.055Z,14.48
2022-11-05T14:58:26.368Z,18.55
2022-11-05T15:00:55.390Z,11.38
2022-11-05T15:03:36.878Z,12.50
2022-11-05T15:06:25.038Z,16.10
2022-11-05T15:09:05.228Z,19.05
2022-11-05T15:12:01.945Z,12.82
2022-11-05T15:14:36.318Z,17.08
2022-11-05T15:17:23.797Z,16.27
2022-11-05T15:19:52.182Z,19.25
2022-11-05T15:22:29.392Z,18.30
2022-11-05T15:24:56.952Z,18.38
2022-11-05T15:27:36.299Z,24.70
2022-11-05T15:30:29.969Z,25.30
2022-11-05T15:33:16.883Z,23.75
2022-11-05T15:35:44.292Z,21.98
2022-11-05T15:38:31.758Z,17.38
2022-11-05T15:41:13.576Z,16.45
2022-11-05T15:44:00.980Z,18.20
2022-11-05T15:46:29.436Z,17.55
2022-11-05T15:49:05.944Z,13.98
2022-11-05T15:51:34.154Z,20.92
2022-11-05T15:56:54.557Z,15.52
2022-11-05T15:59:23.756Z,17.92
2022-11-05T16:02:30.132Z,18.83
2022-11-05T16:04:58.967Z,18.27
2022-11-05T16:07:27.731Z,21.35
2022-11-05T16:10:01.108Z,22.58
2022-11-05T16:12:36.661Z,30.80
2022-11-05T16:15:09.880Z,34.65
2022-11-05T16:20:21.616Z,43.33
2022-11-05T16:22:52.186Z,41.25
2022-11-05T16:25:30.059Z,34.63
2022-11-05T16:27:59.705Z,38.20
2022-11-05T16:30:27.383Z,53.90
2022-11-05T16:33:02.079Z,48.63
2022-11-05T16:35:29.354Z,49.17
2022-11-05T16:38:02.372Z,48.78
2022-11-05T16:40:34.747Z,46.15
2022-11-05T16:43:16.935Z,43.30
2022-11-05T16:45:44.135Z,40.90
2022-11-05T16:48:13.599Z,41.00
2022-11-05T16:50:43.622Z,39.22
2022-11-05T16:53:11.286Z,36.38
2022-11-05T16:55:41.176Z,36.20
2022-11-05T16:58:21.671Z,34.78
2022-11-05T17:00:56.249Z,30.95
2022-11-05T17:03:25.078Z,26.70
2022-11-05T17:05:53.052Z,29.58
2022-11-05T17:08:21.484Z,29.52
2022-11-05T17:10:48.695Z,24.08
2022-11-05T17:13:19.979Z,21.90
2022-11-05T17:15:49.574Z,22.30
2022-11-05T17:18:19.118Z,29.77
2022-11-05T17:20:52.533Z,30.83
2022-11-05T17:23:24.621Z,29.42
2022-11-05T17:25:56.976Z,37.50
2022-11-05T17:28:27.289Z,39.30
2022-11-05T17:31:13.846Z,43.05
2022-11-05T17:33:50.280Z,43.83
2022-11-05T17:36:17.575Z,51.28
2022-11-05T17:41:27.895Z,46.65
2022-11-05T17:43:57.465Z,42.90
2022-11-05T17:46:24.983Z,46.55
2022-11-05T17:48:52.747Z,42.70
2022-11-05T17:51:20.815Z,44.67
2022-11-05T17:53:48.788Z,38.50
2022-11-05T17:56:27.171Z,41.53
2022-11-05T17:59:01.520Z,46.75
2022-11-05T18:01:31.989Z,41.63
2022-11-05T18:04:03.851Z,44.58
2022-11-05T18:06:39.695Z,49.20
2022-11-05T18:09:11.240Z,51.80
2022-11-05T18:12:00.775Z,47.45
2022-11-05T18:14:28.704Z,51.17
2022-11-05T18:16:58.429Z,47.08
2022-11-05T18:19:38.423Z,52.92
2022-11-05T18:22:08.252Z,45.47
2022-11-05T18:24:35.773Z,55.13
2022-11-05T18:27:03.090Z,48.97
2022-11-05T18:29:33.005Z,43.47
2022-11-05T18:32:00.784Z,41.72
2022-11-05T18:34:49.252Z,34.42
2022-11-05T18:37:26.237Z,39.85
2022-11-05T18:39:56.245Z,40.17
2022-11-05T18:42:23.911Z,32.65
2022-11-05T18:44:51.501Z,24.08
2022-11-05T18:47:19.197Z,30.05
2022-11-05T18:49:46.925Z,28.45
2022-11-05T18:52:22.458Z,37.40
2022-11-05T18:57:42.927Z,55.22
2022-11-05T19:03:02.147Z,61.55
2022-11-05T19:05:30.399Z,59.28
2022-11-05T19:08:05.121Z,48.85
2022-11-05T19:10:33.112Z,50.67
2022-11-05T19:13:00.602Z,51.50
2022-11-05T19:15:34.481Z,52.65
2022-11-05T19:18:12.425Z,46.28
2022-11-05T19:20:43.582Z,44.80
2022-11-05T19:23:11.966Z,38.78
2022-11-05T19:28:37.163Z,29.50
2022-11-05T19:31:06.087Z,28.55
2022-11-05T19:33:36.509Z,31.20
2022-11-05T19:36:20.415Z,26.92
2022-11-05T19:38:55.512Z,29.60
2022-11-05T19:41:22.863Z,25.98
2022-11-05T19:43:53.058Z,20.80
2022-11-05T19:46:23.323Z,24.60
2022-11-05T19:49:05.280Z,23.58
2022-11-05T19:51:38.592Z,34.38
2022-11-05T19:54:11.525Z,27.77
2022-11-05T19:56:44.723Z,31.95
2022-11-05T19:59:14.990Z,22.48
2022-11-05T20:04:52.903Z,29.60
2022-11-05T20:07:21.097Z,31.88
2022-11-05T20:09:50.868Z,30.20
2022-11-05T20:12:17.992Z,32.83
2022-11-05T20:14:45.971Z,33.28
2022-11-05T20:17:13.286Z,30.67
2022-11-05T20:20:07.618Z,28.27
2022-11-05T20:22:34.938Z,33.53
2022-11-05T20:25:02.614Z,38.28
2022-11-05T20:27:29.642Z,35.90
2022-11-05T20:29:59.366Z,38.88
2022-11-05T20:32:26.602Z,40.15
2022-11-05T20:34:54.033Z,46.90
2022-11-05T20:37:21.710Z,42.97
2022-11-05T20:39:53.512Z,45.83
2022-11-05T20:42:26.354Z,42.90
2022-11-05T20:44:54.141Z,38.72
2022-11-05T20:47:21.197Z,28.98
2022-11-05T20:49:48.597Z,36.95
2022-11-05T20:52:16.288Z,30.95
2022-11-05T20:54:43.660Z,25.90
2022-11-05T20:57:10.763Z,27.05
2022-11-05T20:59:38.269Z,26.05
2022-11-05T21:02:05.692Z,44.10
2022-11-05T21:04:33.301Z,35.50
2022-11-05T21:07:00.539Z,33.88
2022-11-05T21:09:27.914Z,37.15
2022-11-05T21:12:10.227Z,41.25
2022-11-05T21:14:42.424Z,38.63
2022-11-05T21:17:11.224Z,55.33
2022-11-05T21:19:39.342Z,68.35
2022-11-05T21:22:18.213Z,50.83
2022-11-05T21:24:45.817Z,65.78
2022-11-05T21:27:12.841Z,70.78
2022-11-05T21:29:40.177Z,60.00
2022-11-05T21:32:07.421Z,68.47
2022-11-05T21:34:35.252Z,77.63
2022-11-05T21:37:02.436Z,82.85
2022-11-05T21:39:33.064Z,78.70
2022-11-05T21:42:01.081Z,81.88
2022-11-05T21:44:28.646Z,81.80
2022-11-05T21:46:59.629Z,79.95
2022-11-05T21:49:27.001Z,72.97
2022-11-05T21:51:54.077Z,80.53
2022-11-05T21:54:21.847Z,66.93
2022-11-05T21:56:48.894Z,69.32
2022-11-05T21:59:22.135Z,80.13
2022-11-05T22:01:54.262Z,73.13
2022-11-05T22:04:21.873Z,69.60
2022-11-05T22:06:49.268Z,72.43
2022-11-05T22:09:16.489Z,73.75
2022-11-05T22:11:43.852Z,62.70
2022-11-05T22:14:10.923Z,68.32
2022-11-05T22:16:41.946Z,62.03
2022-11-05T22:19:10.243Z,81.70
2022-11-05T22:21:37.793Z,70.78
2022-11-05T22:24:08.160Z,77.47
2022-11-05T22:26:36.380Z,79.93
2022-11-05T22:29:08.815Z,77.68
2022-11-05T22:31:36.944Z,80.88
2022-11-05T22:34:05.729Z,73.15
2022-11-05T22:36:34.578Z,80.95
2022-11-05T22:39:04.577Z,75.03
2022-11-05T22:41:32.124Z,75.97
2022-11-05T22:44:01.453Z,76.78
2022-11-05T22:46:29.738Z,77.75
2022-11-05T22:48:56.825Z,81.90
2022-11-05T22:51:26.738Z,76.13
2022-11-05T22:53:54.933Z,73.70
2022-11-05T22:56:24.802Z,80.85
2022-11-05T22:58:52.792Z,51.22
2022-11-05T23:01:21.770Z,53.30
2022-11-05T23:03:51.588Z,67.20
2022-11-05T23:06:20.207Z,75.95
2022-11-05T23:08:47.357Z,77.18
2022-11-05T23:11:19.601Z,73.15
2022-11-05T23:13:47.042Z,77.47
2022-11-05T23:16:14.190Z,80.25
2022-11-05T23:18:43.720Z,86.80
2022-11-05T23:21:11.216Z,85.68
2022-11-05T23:23:55.685Z,80.05
2022-11-05T23:26:23.108Z,76.50
2022-11-05T23:28:50.255Z,74.20
2022-11-05T23:31:17.855Z,77.30
2022-11-05T23:33:44.907Z,73.05
2022-11-05T23:36:12.781Z,65.78
2022-11-05T23:38:40.012Z,61.70
2022-11-05T23:41:07.584Z,65.40
2022-11-05T23:43:47.574Z,61.55
2022-11-05T23:46:19.121Z,69.80
2022-11-05T23:48:48.552Z,69.72
2022-11-05T23:51:15.936Z,68.95
2022-11-05T23:53:43.304Z,69.38
2022-11-05T23:56:19.812Z,70.07
2022-11-05T23:58:58.152Z,66.90
